Time;durP1;ratioP1;P1;durP2;ratioP2;P2;SDS_P1;SDS_P2;PMS_P1;PMS_P2;Temp;Humidity;BMP_temperature;BMP_pressure;BME280_temperature;BME280_humidity;BME280_pressure;Samples;Min_cycle;Max_cycle;Signal;HPM_P1;HPM_P2
2023/01/20 00:01:21;;;;;;;33.30;15.10;;;;;;;8.65;100.00;99143.18;108744;1262;61688;-70
2023/01/20 00:03:49;;;;;;;41.40;14.40;;;;;;;8.68;100.00;99148.27;108641;1262;61430;-71
2023/01/20 00:06:16;;;;;;;51.70;15.40;;;;;;;8.69;100.00;99145.96;108750;1262;73812;-71
2023/01/20 00:08:43;;;;;;;23.60;14.50;;;;;;;8.70;100.00;99138.20;108665;1262;70694;-70
2023/01/20 00:11:11;;;;;;;47.60;15.00;;;;;;;8.69;100.00;99135.78;108662;1262;73420;-73
2023/01/20 00:13:38;;;;;;;39.50;14.20;;;;;;;8.68;100.00;99142.52;108620;1262;61816;-71
2023/01/20 00:16:07;;;;;;;35.70;14.90;;;;;;;8.70;100.00;99145.70;108619;1262;60528;-68
2023/01/20 00:18:35;;;;;;;34.80;14.40;;;;;;;8.70;100.00;99147.59;108564;1261;71590;-69
2023/01/20 00:21:03;;;;;;;42.80;15.00;;;;;;;8.69;100.00;99149.93;108675;1262;67010;-70
2023/01/20 00:23:30;;;;;;;27.70;13.70;;;;;;;8.67;100.00;99146.27;108657;1262;73126;-67
2023/01/20 00:25:57;;;;;;;54.30;16.00;;;;;;;8.64;100.00;99144.15;108773;1262;60990;-71
2023/01/20 00:28:24;;;;;;;32.90;12.80;;;;;;;8.63;100.00;99143.04;108764;1262;60872;-69
2023/01/20 00:30:51;;;;;;;33.20;14.00;;;;;;;8.64;100.00;99135.07;108748;1262;72798;-69
2023/01/20 00:33:18;;;;;;;28.80;13.60;;;;;;;8.63;100.00;99134.70;108743;1264;67875;-69
2023/01/20 00:35:46;;;;;;;35.40;13.50;;;;;;;8.61;100.00;99140.58;108740;1262;72519;-68
2023/01/20 00:38:14;;;;;;;39.00;15.60;;;;;;;8.61;100.00;99149.69;108694;1261;62489;-68
2023/01/20 00:40:40;;;;;;;38.00;13.30;;;;;;;8.61;100.00;99153.44;108607;1262;60694;-69
2023/01/20 00:43:07;;;;;;;25.40;11.30;;;;;;;8.62;100.00;99152.80;108676;1263;72955;-67
2023/01/20 00:45:34;;;;;;;27.20;11.40;;;;;;;8.63;100.00;99151.42;108732;1262;68177;-66
2023/01/20 00:48:01;;;;;;;31.40;12.40;;;;;;;8.66;100.00;99152.80;108710;1262;73572;-68
2023/01/20 00:50:28;;;;;;;32.00;11.00;;;;;;;8.68;100.00;99146.70;108655;1263;61555;-69
2023/01/20 00:52:54;;;;;;;33.50;11.90;;;;;;;8.69;100.00;99149.19;108748;1262;59837;-69
2023/01/20 00:55:21;;;;;;;26.60;12.50;;;;;;;8.67;100.00;99146.49;108694;1264;74396;-69
2023/01/20 00:57:48;;;;;;;33.30;12.60;;;;;;;8.64;100.00;99144.89;108769;1262;68896;-69
2023/01/20 01:00:17;;;;;;;24.80;10.30;;;;;;;8.64;100.00;99145.36;108651;1264;72460;-68
2023/01/20 01:02:44;;;;;;;31.20;9.70;;;;;;;8.67;100.00;99145.42;108655;1263;63320;-71
2023/01/20 01:05:11;;;;;;;28.90;10.20;;;;;;;8.67;100.00;99153.35;108663;1264;60382;-70
2023/01/20 01:07:39;;;;;;;27.40;11.30;;;;;;;8.63;100.00;99154.16;108636;1263;73993;-68
2023/01/20 01:10:06;;;;;;;22.60;10.40;;;;;;;8.63;100.00;99154.27;108718;1263;67182;-69
2023/01/20 01:12:33;;;;;;;32.80;9.30;;;;;;;8.61;100.00;99155.00;108710;1263;74396;-69
2023/01/20 01:15:00;;;;;;;24.20;10.90;;;;;;;8.61;100.00;99154.02;108657;1263;64640;-68
2023/01/20 01:17:27;;;;;;;20.90;9.90;;;;;;;8.62;100.00;99151.03;108719;1263;60253;-67
2023/01/20 01:19:54;;;;;;;38.30;12.20;;;;;;;8.61;100.00;99150.80;108669;1262;73263;-70
2023/01/20 01:22:21;;;;;;;23.50;8.90;;;;;;;8.61;100.00;99146.35;108914;1258;67873;-69
2023/01/20 01:24:48;;;;;;;24.00;8.90;;;;;;;8.62;100.00;99139.14;108956;1259;73235;-69
2023/01/20 01:27:16;;;;;;;15.00;7.70;;;;;;;8.66;100.00;99131.02;108901;1259;64452;-66
2023/01/20 01:29:43;;;;;;;29.90;9.50;;;;;;;8.65;100.00;99135.63;108981;1258;58968;-69
2023/01/20 01:32:10;;;;;;;33.60;9.30;;;;;;;8.64;100.00;99134.33;108932;1258;73484;-69
2023/01/20 01:34:37;;;;;;;26.40;9.10;;;;;;;8.69;100.00;99134.28;108900;1259;68668;-70
2023/01/20 01:37:03;;;;;;;23.50;7.80;;;;;;;8.73;100.00;99131.75;109006;1257;73037;-68
2023/01/20 01:39:30;;;;;;;25.40;10.10;;;;;;;8.68;100.00;99131.66;108972;1257;64280;-71
2023/01/20 01:41:57;;;;;;;33.90;8.70;;;;;;;8.60;100.00;99128.33;108871;1258;60352;-69
2023/01/20 01:44:25;;;;;;;25.50;8.80;;;;;;;8.54;100.00;99135.33;108945;1258;73895;-70
2023/01/20 01:46:52;;;;;;;22.70;9.00;;;;;;;8.49;100.00;99133.82;108946;1258;68663;-70
2023/01/20 01:49:21;;;;;;;16.40;7.40;;;;;;;8.48;100.00;99138.60;109056;1257;73144;-71
2023/01/20 01:51:54;;;;;;;29.30;9.90;;;;;;;8.48;100.00;99141.33;109050;1257;61021;-71
2023/01/20 01:54:22;;;;;;;21.90;8.20;;;;;;;8.47;100.00;99136.69;108960;1257;60972;-71
2023/01/20 01:56:49;;;;;;;32.00;9.80;;;;;;;8.44;100.00;99140.30;108973;1259;72006;-72
2023/01/20 02:45:09;;;;;;;21.80;11.00;;;;;;;7.42;100.00;99168.55;102162;1295;600653;-69
2023/01/20 02:47:44;;;;;;;28.60;10.20;;;;;;;7.36;100.00;99167.34;104322;1269;62190;-70
2023/01/20 02:50:24;;;;;;;26.70;9.60;;;;;;;7.36;100.00;99171.13;104267;1274;60767;-68
2023/01/20 02:52:53;;;;;;;23.70;9.30;;;;;;;7.37;100.00;99173.67;104431;1271;72823;-67
2023/01/20 02:55:43;;;;;;;21.00;9.60;;;;;;;7.42;100.00;99179.36;104373;1274;69411;-70
2023/01/20 02:58:16;;;;;;;18.00;8.90;;;;;;;7.38;100.00;99188.62;104041;1266;616417;-68
2023/01/20 03:00:51;;;;;;;19.90;8.50;;;;;;;7.38;100.00;99199.04;104646;1266;62659;-68
2023/01/20 03:03:23;;;;;;;23.10;9.90;;;;;;;7.37;100.00;99195.93;104438;1271;59573;-70
2023/01/20 03:05:55;;;;;;;16.80;9.40;;;;;;;7.39;100.00;99196.20;104503;1265;72681;-70
2023/01/20 03:08:22;;;;;;;22.80;9.00;;;;;;;7.39;100.00;99191.02;104649;1267;66895;-68
2023/01/20 03:10:50;;;;;;;23.50;11.60;;;;;;;7.40;100.00;99192.92;104782;1267;74042;-67
2023/01/20 03:13:52;;;;;;;24.00;7.70;;;;;;;7.38;100.00;99191.49;104492;1268;62631;-69
2023/01/20 03:16:22;;;;;;;29.00;9.40;;;;;;;7.39;100.00;99192.62;104499;1266;60716;-67
2023/01/20 03:18:54;;;;;;;31.30;10.90;;;;;;;7.37;100.00;99190.08;104523;1266;73595;-68
2023/01/20 03:21:21;;;;;;;22.40;9.00;;;;;;;7.34;100.00;99190.45;104566;1266;69817;-69
2023/01/20 03:23:50;;;;;;;18.80;9.50;;;;;;;7.35;100.00;99189.67;104623;1269;75286;-68
2023/01/20 03:26:18;;;;;;;21.10;9.40;;;;;;;7.35;100.00;99193.73;104519;1265;63805;-67
2023/01/20 03:28:47;;;;;;;20.20;8.00;;;;;;;7.36;100.00;99199.38;104607;1268;62888;-68
2023/01/20 03:31:33;;;;;;;18.90;8.20;;;;;;;7.35;100.00;99204.93;105105;1263;75294;-70
2023/01/20 03:34:01;;;;;;;18.00;8.60;;;;;;;7.34;100.00;99209.71;105167;1263;70023;-67
2023/01/20 03:36:28;;;;;;;21.20;8.00;;;;;;;7.33;100.00;99218.80;105076;1259;73859;-69
2023/01/20 03:38:55;;;;;;;30.40;11.70;;;;;;;7.34;100.00;99223.15;105022;1259;63433;-67
2023/01/20 03:41:47;;;;;;;24.80;9.60;;;;;;;7.36;100.00;99222.33;104922;1260;62921;-67
2023/01/20 03:44:33;;;;;;;27.80;10.30;;;;;;;7.37;100.00;99225.35;105048;1263;74292;-66
2023/01/20 03:47:14;;;;;;;23.50;10.50;;;;;;;7.39;100.00;99239.08;105313;1259;69660;-69
2023/01/20 03:50:02;;;;;;;22.00;12.60;;;;;;;7.40;100.00;99236.96;105285;1259;73020;-66
2023/01/20 03:52:57;;;;;;;35.30;14.50;;;;;;;7.38;100.00;99240.35;105284;1259;62574;-67
2023/01/20 03:55:24;;;;;;;44.90;19.10;;;;;;;7.43;100.00;99245.52;105227;1256;62732;-66
2023/01/20 03:58:04;;;;;;;27.50;14.40;;;;;;;7.46;100.00;99246.80;105277;1256;74587;-67
2023/01/20 04:00:34;;;;;;;32.90;16.20;;;;;;;7.41;100.00;99250.57;105410;1256;68686;-69
2023/01/20 04:03:04;;;;;;;30.50;12.90;;;;;;;7.39;100.00;99247.10;105113;1259;72114;-67
2023/01/20 04:05:31;;;;;;;28.00;15.70;;;;;;;7.36;100.00;99248.45;105127;1257;62465;-68
2023/01/20 04:07:59;;;;;;;35.70;19.00;;;;;;;7.31;100.00;99248.83;105052;1262;61460;-70
2023/01/20 04:10:26;;;;;;;36.90;17.20;;;;;;;7.30;100.00;99250.08;105038;1262;73442;-69
2023/01/20 04:12:53;;;;;;;28.00;15.80;;;;;;;7.35;100.00;99252.96;104829;1262;68862;-69
2023/01/20 04:15:20;;;;;;;27.50;13.50;;;;;;;7.35;100.00;99253.49;105121;1256;74390;-69
2023/01/20 04:17:47;;;;;;;27.60;13.40;;;;;;;7.39;100.00;99255.77;105005;1261;59764;-70
2023/01/20 04:20:14;;;;;;;27.00;13.30;;;;;;;7.41;100.00;99261.27;105009;1258;62716;-70
2023/01/20 04:22:46;;;;;;;27.10;10.20;;;;;;;7.38;100.00;99258.44;105160;1256;74950;-69
2023/01/20 04:25:19;;;;;;;17.60;11.60;;;;;;;7.32;100.00;99260.98;105291;1256;68431;-68
2023/01/20 04:27:46;;;;;;;28.20;10.70;;;;;;;7.21;100.00;99258.80;105363;1257;73373;-69
2023/01/20 04:30:13;;;;;;;25.10;10.20;;;;;;;7.15;100.00;99261.14;105140;1256;64367;-67
2023/01/20 04:32:40;;;;;;;26.40;10.70;;;;;;;7.11;100.00;99267.23;105174;1256;62968;-70
2023/01/20 04:35:11;;;;;;;27.80;10.00;;;;;;;7.12;100.00;99273.44;105164;1256;75906;-69
2023/01/20 04:37:38;;;;;;;22.70;10.50;;;;;;;7.16;100.00;99281.32;105722;1256;68795;-67
2023/01/20 04:40:06;;;;;;;20.40;10.40;;;;;;;7.15;100.00;99284.14;105152;1256;74423;-69
2023/01/20 04:42:33;;;;;;;22.50;12.30;;;;;;;7.11;100.00;99288.54;105060;1257;64453;-69
2023/01/20 04:45:00;;;;;;;24.50;12.60;;;;;;;7.07;100.00;99295.26;105167;1257;63027;-68
2023/01/20 04:47:30;;;;;;;18.00;10.40;;;;;;;7.09;100.00;99306.42;105214;1257;73599;-69
2023/01/20 04:49:57;;;;;;;19.90;13.30;;;;;;;7.12;100.00;99313.12;105437;1257;70502;-68
2023/01/20 04:52:24;;;;;;;33.90;13.90;;;;;;;7.04;100.00;99315.46;105148;1256;73875;-67
2023/01/20 04:54:51;;;;;;;31.30;13.00;;;;;;;6.96;100.00;99321.29;105345;1260;61315;-67
2023/01/20 04:57:18;;;;;;;24.60;12.40;;;;;;;6.90;100.00;99312.12;105247;1259;59566;-67
2023/01/20 04:59:45;;;;;;;22.20;12.80;;;;;;;6.86;100.00;99306.80;105320;1256;72545;-67
2023/01/20 05:02:12;;;;;;;30.70;11.30;;;;;;;6.82;100.00;99301.46;105250;1256;69865;-68
2023/01/20 05:04:39;;;;;;;23.90;12.90;;;;;;;6.78;100.00;99311.73;105251;1260;72262;-67
2023/01/20 05:07:06;;;;;;;27.00;12.20;;;;;;;6.76;100.00;99313.86;105133;1262;63379;-68
2023/01/20 05:09:33;;;;;;;21.50;11.60;;;;;;;6.72;100.00;99320.44;105299;1256;61756;-67
2023/01/20 05:12:00;;;;;;;19.90;11.20;;;;;;;6.65;100.00;99315.91;105289;1259;75387;-68
2023/01/20 05:14:28;;;;;;;30.10;12.30;;;;;;;6.58;100.00;99311.59;105263;1262;69676;-67
2023/01/20 05:16:55;;;;;;;22.20;10.90;;;;;;;6.59;100.00;99317.17;109024;1256;74978;-70
2023/01/20 05:19:22;;;;;;;18.10;10.60;;;;;;;6.58;100.00;99323.06;108957;1256;62148;-69
2023/01/20 05:21:49;;;;;;;27.90;9.90;;;;;;;6.53;100.00;99328.14;109086;1256;62595;-68
2023/01/20 05:24:15;;;;;;;22.30;10.50;;;;;;;6.52;100.00;99340.89;109090;1256;73040;-70
2023/01/20 05:26:42;;;;;;;16.40;10.10;;;;;;;6.49;100.00;99345.06;108932;1256;67651;-69
2023/01/20 05:29:09;;;;;;;20.60;10.00;;;;;;;6.43;100.00;99342.56;109049;1256;73514;-69
2023/01/20 05:31:41;;;;;;;35.00;14.20;;;;;;;6.39;100.00;99343.41;109104;1256;62126;-71
2023/01/20 05:34:09;;;;;;;23.80;9.80;;;;;;;6.36;100.00;99347.63;108979;1256;60371;-69
2023/01/20 05:36:36;;;;;;;22.80;10.90;;;;;;;6.41;100.00;99347.95;109011;1257;71441;-67
2023/01/20 05:39:03;;;;;;;21.60;10.50;;;;;;;6.44;100.00;99351.27;109071;1258;68553;-67
2023/01/20 05:41:30;;;;;;;14.80;8.60;;;;;;;6.46;100.00;99350.05;109084;1257;73035;-68
2023/01/20 05:43:56;;;;;;;22.70;9.30;;;;;;;6.42;100.00;99353.75;109023;1257;61805;-66
2023/01/20 05:46:23;;;;;;;17.20;9.80;;;;;;;6.39;100.00;99356.14;109101;1257;59322;-69
2023/01/20 05:48:50;;;;;;;19.00;9.00;;;;;;;6.39;100.00;99359.92;109031;1257;75415;-69
2023/01/20 05:51:17;;;;;;;17.70;8.90;;;;;;;6.38;100.00;99364.02;109032;1257;70199;-67
2023/01/20 05:53:44;;;;;;;24.70;11.30;;;;;;;6.39;100.00;99366.39;108987;1263;73965;-67
2023/01/20 05:56:14;;;;;;;18.40;9.10;;;;;;;6.41;100.00;99361.52;109054;1257;63157;-71
2023/01/20 05:58:41;;;;;;;20.30;9.70;;;;;;;6.40;100.00;99367.31;108986;1257;59363;-66
2023/01/20 06:01:10;;;;;;;20.30;10.10;;;;;;;6.43;100.00;99368.70;109005;1257;73497;-68
2023/01/20 06:03:37;;;;;;;23.50;11.10;;;;;;;6.44;100.00;99366.44;109069;1257;69396;-68
2023/01/20 06:06:06;;;;;;;21.20;11.20;;;;;;;6.48;100.00;99373.17;109092;1258;73241;-68
2023/01/20 06:08:33;;;;;;;21.20;11.00;;;;;;;6.51;100.00;99371.48;108992;1257;63488;-69
2023/01/20 06:11:00;;;;;;;23.50;14.00;;;;;;;6.52;100.00;99373.05;109035;1258;60405;-69
2023/01/20 06:13:29;;;;;;;21.20;11.90;;;;;;;6.56;100.00;99372.02;109061;1257;75041;-68
2023/01/20 06:15:56;;;;;;;19.30;10.30;;;;;;;6.56;100.00;99376.46;109028;1257;67004;-68
2023/01/20 06:18:23;;;;;;;27.00;11.20;;;;;;;6.53;100.00;99378.27;109008;1257;72787;-68
2023/01/20 06:20:50;;;;;;;19.50;10.80;;;;;;;6.53;100.00;99380.23;109047;1257;62044;-70
2023/01/20 06:23:17;;;;;;;23.00;11.40;;;;;;;6.54;100.00;99382.08;109107;1258;61329;-67
2023/01/20 06:25:44;;;;;;;23.90;12.30;;;;;;;6.56;100.00;99389.88;109069;1257;74299;-69
2023/01/20 06:28:11;;;;;;;18.50;11.30;;;;;;;6.57;100.00;99390.59;109081;1259;66725;-68
2023/01/20 06:30:39;;;;;;;24.50;14.30;;;;;;;6.51;100.00;99394.80;109076;1258;74774;-67
2023/01/20 06:33:09;;;;;;;19.40;10.90;;;;;;;6.47;100.00;99402.10;109029;1257;62464;-67
2023/01/20 06:35:36;;;;;;;20.20;11.90;;;;;;;6.41;100.00;99407.09;108969;1258;61586;-68
2023/01/20 06:38:03;;;;;;;16.40;10.10;;;;;;;6.33;100.00;99406.79;109023;1258;74458;-66
2023/01/20 06:40:30;;;;;;;26.40;10.80;;;;;;;6.27;100.00;99412.02;109031;1258;69152;-68
2023/01/20 06:42:57;;;;;;;18.60;10.60;;;;;;;6.21;100.00;99418.98;109024;1258;71258;-68
2023/01/20 06:45:24;;;;;;;22.70;10.90;;;;;;;6.20;100.00;99421.23;108890;1259;62678;-67
2023/01/20 06:47:51;;;;;;;23.90;10.10;;;;;;;6.22;100.00;99420.44;109069;1262;60057;-68
2023/01/20 06:50:18;;;;;;;18.90;10.90;;;;;;;6.25;100.00;99413.52;109007;1259;73900;-69
2023/01/20 06:52:45;;;;;;;20.70;9.60;;;;;;;6.30;100.00;99412.19;109011;1259;67181;-70
2023/01/20 06:55:12;;;;;;;14.00;9.10;;;;;;;6.37;100.00;99418.57;109066;1259;74468;-68
2023/01/20 06:57:39;;;;;;;15.90;10.50;;;;;;;6.38;100.00;99427.01;109032;1258;59600;-68
2023/01/20 07:00:07;;;;;;;30.00;10.90;;;;;;;6.35;100.00;99430.71;109010;1259;59100;-68
2023/01/20 07:02:34;;;;;;;25.30;11.60;;;;;;;6.40;100.00;99429.12;109012;1259;76105;-67
2023/01/20 07:05:01;;;;;;;18.80;10.50;;;;;;;6.51;100.00;99424.91;109192;1257;69344;-69
2023/01/20 07:07:28;;;;;;;20.80;10.50;;;;;;;6.58;100.00;99433.14;109059;1257;73436;-68
2023/01/20 07:09:55;;;;;;;22.90;10.90;;;;;;;6.58;100.00;99434.95;109157;1257;61874;-70
2023/01/20 07:12:22;;;;;;;20.90;11.70;;;;;;;6.59;100.00;99443.70;109052;1262;61238;-71
2023/01/20 07:14:49;;;;;;;19.30;12.00;;;;;;;6.57;100.00;99451.24;109150;1259;73902;-70
2023/01/20 07:17:16;;;;;;;24.70;10.60;;;;;;;6.55;100.00;99443.92;109062;1258;70238;-68
2023/01/20 07:19:43;;;;;;;27.80;12.50;;;;;;;6.55;100.00;99446.56;109022;1257;74691;-69
2023/01/20 07:22:09;;;;;;;21.90;11.00;;;;;;;6.54;100.00;99445.71;108999;1257;64271;-68
2023/01/20 07:24:36;;;;;;;21.60;11.80;;;;;;;6.53;100.00;99450.29;109208;1257;61475;-69
2023/01/20 07:27:03;;;;;;;17.10;10.20;;;;;;;6.49;100.00;99444.10;108994;1257;73719;-67
2023/01/20 07:29:30;;;;;;;22.70;11.00;;;;;;;6.50;100.00;99444.09;109160;1257;69929;-71
2023/01/20 07:31:57;;;;;;;20.30;10.00;;;;;;;6.53;100.00;99442.96;109044;1257;72631;-66
2023/01/20 07:34:24;;;;;;;14.80;10.20;;;;;;;6.58;100.00;99445.27;109143;1261;61849;-67
2023/01/20 07:36:52;;;;;;;30.50;12.60;;;;;;;6.59;100.00;99453.92;109027;1259;59977;-66
2023/01/20 07:39:19;;;;;;;27.10;10.90;;;;;;;6.65;100.00;99460.80;109107;1258;74102;-68
2023/01/20 07:41:48;;;;;;;25.20;11.50;;;;;;;6.67;100.00;99466.88;109007;1259;69137;-68
2023/01/20 07:44:15;;;;;;;30.60;12.00;;;;;;;6.73;100.00;99461.89;109027;1259;72797;-69
2023/01/20 07:46:42;;;;;;;29.50;13.50;;;;;;;6.77;100.00;99457.86;109035;1259;61566;-67
2023/01/20 07:49:09;;;;;;;32.90;13.00;;;;;;;6.75;100.00;99451.27;109043;1259;61268;-68
2023/01/20 07:51:38;;;;;;;20.60;11.10;;;;;;;6.76;100.00;99451.54;109059;1259;74622;-68
2023/01/20 07:54:05;;;;;;;23.00;14.10;;;;;;;6.76;100.00;99455.39;109032;1258;67650;-67
2023/01/20 07:56:32;;;;;;;24.10;11.70;;;;;;;6.80;100.00;99458.20;109022;1258;74316;-69
2023/01/20 07:58:59;;;;;;;30.90;11.50;;;;;;;6.86;100.00;99458.88;108965;1259;60840;-67
2023/01/20 08:01:29;;;;;;;20.00;11.20;;;;;;;6.88;100.00;99464.93;109030;1258;60297;-69
2023/01/20 08:03:59;;;;;;;20.60;11.40;;;;;;;6.90;100.00;99463.33;109033;1258;72830;-69
2023/01/20 08:06:26;;;;;;;21.00;11.60;;;;;;;6.96;100.00;99467.63;109074;1258;67212;-71
2023/01/20 08:08:53;;;;;;;22.10;12.50;;;;;;;7.02;100.00;99473.66;109012;1259;72609;-69
2023/01/20 08:11:22;;;;;;;26.40;14.60;;;;;;;7.05;100.00;99479.16;109000;1259;60509;-69
2023/01/20 08:13:49;;;;;;;34.40;16.10;;;;;;;7.09;100.00;99483.55;109061;1257;58689;-70
2023/01/20 08:16:16;;;;;;;33.60;13.50;;;;;;;7.10;100.00;99480.27;109020;1258;76211;-68
2023/01/20 08:18:44;;;;;;;30.00;12.10;;;;;;;7.14;100.00;99488.85;109032;1258;70257;-68
2023/01/20 08:21:21;;;;;;;18.40;11.00;;;;;;;7.21;100.00;99483.08;109037;1258;74528;-68
2023/01/20 08:23:49;;;;;;;20.30;10.10;;;;;;;7.26;100.00;99483.73;108853;1258;63361;-67
2023/01/20 08:26:16;;;;;;;17.20;7.90;;;;;;;7.30;100.00;99482.59;109004;1258;61472;-68
2023/01/20 08:28:43;;;;;;;15.50;9.40;;;;;;;7.40;100.00;99487.63;109077;1259;74228;-69
2023/01/20 08:31:11;;;;;;;23.10;9.30;;;;;;;7.48;100.00;99488.14;109008;1257;68434;-67
2023/01/20 08:33:39;;;;;;;21.30;8.90;;;;;;;7.56;100.00;99485.31;109013;1259;73325;-70
2023/01/20 08:36:07;;;;;;;17.40;7.90;;;;;;;7.63;100.00;99485.14;108999;1259;63993;-71
2023/01/20 08:38:34;;;;;;;15.00;9.00;;;;;;;7.72;100.00;99477.24;109027;1259;59116;-72
2023/01/20 08:41:05;;;;;;;18.50;8.90;;;;;;;7.81;100.00;99475.82;108944;1259;74646;-69
2023/01/20 08:43:35;;;;;;;15.30;8.50;;;;;;;7.88;100.00;99482.38;108956;1259;69472;-68
2023/01/20 08:46:09;;;;;;;15.10;9.50;;;;;;;7.97;100.00;99482.13;108942;1259;74033;-71
2023/01/20 08:48:37;;;;;;;18.10;7.70;;;;;;;8.08;100.00;99482.98;108965;1259;63369;-69
2023/01/20 08:51:06;;;;;;;19.00;8.40;;;;;;;8.15;100.00;99479.86;108887;1259;59568;-68
2023/01/20 08:53:33;;;;;;;14.10;9.60;;;;;;;8.22;100.00;99479.57;109039;1259;73856;-68
2023/01/20 08:56:01;;;;;;;17.30;9.20;;;;;;;8.26;100.00;99484.93;108914;1259;68596;-69
2023/01/20 08:58:28;;;;;;;18.70;9.10;;;;;;;8.28;100.00;99485.67;108900;1259;72620;-68
2023/01/20 09:00:55;;;;;;;23.30;7.80;;;;;;;8.32;100.00;99490.55;108910;1258;64702;-68
2023/01/20 09:03:22;;;;;;;23.20;11.20;;;;;;;8.37;100.00;99489.73;109056;1259;58683;-70
2023/01/20 09:05:49;;;;;;;25.60;11.70;;;;;;;8.39;100.00;99486.66;109002;1259;74430;-68
2023/01/20 09:08:16;;;;;;;16.40;7.50;;;;;;;8.43;100.00;99483.77;109034;1259;70469;-69
2023/01/20 09:10:44;;;;;;;10.90;6.70;;;;;;;8.44;100.00;99483.80;109073;1259;73814;-68
2023/01/20 09:13:11;;;;;;;15.50;8.70;;;;;;;8.46;100.00;99479.81;109032;1262;63969;-68
2023/01/20 09:15:38;;;;;;;19.70;9.60;;;;;;;8.47;100.00;99481.56;109051;1259;61295;-68
2023/01/20 09:18:05;;;;;;;19.60;8.50;;;;;;;8.48;100.00;99480.66;108985;1259;73087;-69
2023/01/20 09:20:32;;;;;;;14.10;8.70;;;;;;;8.49;100.00;99472.73;108945;1259;67952;-69
2023/01/20 09:23:02;;;;;;;19.10;8.60;;;;;;;8.54;100.00;99472.98;109022;1259;72458;-67
2023/01/20 09:25:29;;;;;;;13.50;7.20;;;;;;;8.64;100.00;99473.05;109004;1259;63015;-69
2023/01/20 09:27:59;;;;;;;24.40;11.00;;;;;;;8.74;100.00;99476.98;109057;1259;59700;-69
2023/01/20 09:30:26;;;;;;;18.20;10.70;;;;;;;8.76;100.00;99476.80;109029;1263;73522;-71
2023/01/20 09:32:56;;;;;;;18.70;10.20;;;;;;;8.76;100.00;99480.77;109008;1259;67925;-69
2023/01/20 09:35:23;;;;;;;22.10;9.50;;;;;;;8.77;100.00;99470.86;108980;1259;75527;-70
2023/01/20 09:43:53;;;;;;;20.40;9.80;;;;;;;8.87;100.00;99488.84;108967;1259;76146;-74
2023/01/20 09:46:29;;;;;;;16.80;10.10;;;;;;;8.92;100.00;99488.96;108937;1259;70327;-71
2023/01/20 09:54:49;;;;;;;23.10;10.60;;;;;;;8.99;100.00;99495.40;108903;1259;59329;-72
2023/01/20 12:16:45;;;;;;;18.50;13.40;;;;;;;11.02;100.00;99532.58;102690;1287;601183;-70
2023/01/20 12:19:14;;;;;;;21.80;12.80;;;;;;;11.03;100.00;99535.33;104410;1271;61924;-67
2023/01/20 12:21:42;;;;;;;21.10;12.00;;;;;;;11.06;100.00;99534.86;104408;1271;60415;-74
2023/01/20 12:25:06;;;;;;;19.70;11.50;;;;;;;11.10;100.00;99533.08;104466;1268;72595;-67
2023/01/20 12:27:21;;;;;;;17.80;10.60;;;;;;;11.20;100.00;99531.70;104351;1271;70490;-69
2023/01/20 12:29:49;;;;;;;17.50;9.90;;;;;;;11.28;100.00;99537.68;103782;1267;603577;-70
2023/01/20 12:32:16;;;;;;;18.80;11.50;;;;;;;11.37;99.96;99536.89;104812;1268;64535;-67
2023/01/20 12:34:43;;;;;;;30.10;10.90;;;;;;;11.46;99.89;99543.63;104523;1267;62088;-69
2023/01/20 12:37:30;;;;;;;18.80;11.20;;;;;;;11.61;99.58;99542.42;104547;1266;71572;-66
2023/01/20 12:40:06;;;;;;;20.20;12.00;;;;;;;11.73;98.16;99541.07;104560;1272;70562;-68
2023/01/20 12:43:04;;;;;;;17.30;11.80;;;;;;;11.79;96.61;99537.09;104396;1268;72685;-66
2023/01/20 12:45:43;;;;;;;17.80;11.80;;;;;;;11.77;95.55;99547.63;104439;1272;61523;-72
2023/01/20 12:48:10;;;;;;;20.50;11.50;;;;;;;11.79;95.17;99549.31;104455;1268;59653;-67
2023/01/20 12:50:59;;;;;;;13.90;10.80;;;;;;;11.77;94.34;99552.64;104423;1269;75667;-73
2023/01/20 12:53:38;;;;;;;15.20;10.20;;;;;;;11.74;93.62;99555.04;104457;1268;68609;-68
2023/01/20 12:56:15;;;;;;;18.60;10.00;;;;;;;11.71;93.12;99544.86;104332;1268;75310;-68
2023/01/20 12:59:18;;;;;;;13.80;10.60;;;;;;;11.69;92.17;99549.64;104497;1274;59766;-67
2023/01/20 13:01:51;;;;;;;15.40;11.80;;;;;;;11.58;91.11;99550.44;104447;1267;63052;-72
2023/01/20 13:04:21;;;;;;;13.20;10.00;;;;;;;11.50;91.47;99549.73;104910;1267;73651;-70
2023/01/20 13:06:51;;;;;;;15.90;10.30;;;;;;;11.50;91.40;99556.32;104934;1271;67142;-72
2023/01/20 13:09:28;;;;;;;17.50;12.00;;;;;;;11.49;91.25;99561.05;104855;1267;74657;-69
2023/01/20 13:12:11;;;;;;;12.60;9.70;;;;;;;11.44;90.25;99565.75;104754;1274;61865;-72
2023/01/20 13:14:41;;;;;;;19.40;10.50;;;;;;;11.41;90.77;99566.33;104416;1267;62936;-70
2023/01/20 13:17:30;;;;;;;16.30;10.50;;;;;;;11.40;90.74;99566.42;104571;1273;73535;-70
2023/01/20 13:20:00;;;;;;;13.60;9.70;;;;;;;11.29;90.36;99564.82;104710;1260;69193;-70
2023/01/20 13:22:27;;;;;;;17.50;10.60;;;;;;;11.25;90.87;99562.54;104852;1266;72535;-71
2023/01/20 13:24:55;;;;;;;18.60;10.20;;;;;;;11.23;91.00;99562.66;104790;1266;61499;-71
2023/01/20 13:27:27;;;;;;;13.40;10.70;;;;;;;11.21;91.20;99562.20;104914;1262;62848;-70
2023/01/20 13:29:56;;;;;;;17.50;10.10;;;;;;;11.22;91.18;99562.84;105092;1267;73799;-68
2023/01/20 13:32:32;;;;;;;21.60;10.70;;;;;;;11.25;91.34;99563.77;105071;1262;70536;-69
2023/01/20 13:35:20;;;;;;;16.50;11.40;;;;;;;11.24;91.15;99561.55;104949;1264;71642;-69
2023/01/20 13:37:57;;;;;;;17.10;9.80;;;;;;;11.21;90.73;99557.92;105057;1261;63586;-71
2023/01/20 13:40:37;;;;;;;16.10;11.70;;;;;;;11.15;90.81;99562.19;105102;1258;61137;-69
2023/01/20 13:43:25;;;;;;;21.50;11.30;;;;;;;11.10;90.95;99568.01;105094;1257;75751;-73
2023/01/20 13:46:01;;;;;;;17.90;12.00;;;;;;;11.10;91.21;99571.25;105113;1262;68265;-71
2023/01/20 13:48:29;;;;;;;23.00;13.50;;;;;;;11.08;90.75;99572.89;105128;1259;74860;-71
2023/01/20 13:51:25;;;;;;;18.80;12.90;;;;;;;10.98;90.70;99571.34;104967;1257;64161;-71
2023/01/20 13:53:52;;;;;;;19.80;12.70;;;;;;;10.91;91.04;99569.66;105439;1257;60659;-69
2023/01/20 13:56:31;;;;;;;18.70;12.50;;;;;;;10.83;91.12;99571.41;104905;1257;75527;-73
2023/01/20 13:59:00;;;;;;;16.40;12.40;;;;;;;10.80;91.43;99569.39;105343;1258;70181;-70
2023/01/20 14:01:27;;;;;;;18.60;13.70;;;;;;;10.79;91.22;99572.95;105134;1261;72915;-73
2023/01/20 14:04:05;;;;;;;29.80;13.90;;;;;;;10.74;91.10;99575.48;105225;1261;59668;-72
2023/01/20 14:06:34;;;;;;;21.50;14.70;;;;;;;10.66;91.37;99576.47;105601;1259;61622;-71
2023/01/20 14:09:01;;;;;;;20.80;14.20;;;;;;;10.63;91.52;99580.09;104943;1263;74184;-72
2023/01/20 14:11:29;;;;;;;25.50;13.40;;;;;;;10.63;91.48;99580.35;105069;1256;70269;-71
2023/01/20 14:13:58;;;;;;;21.30;16.40;;;;;;;10.60;91.20;99580.11;105243;1256;73504;-71
2023/01/20 14:16:34;;;;;;;25.80;16.50;;;;;;;10.60;91.46;99579.67;105112;1261;62774;-72
2023/01/20 14:19:26;;;;;;;20.90;14.20;;;;;;;10.60;91.20;99578.06;105245;1261;59645;-70
2023/01/20 14:21:55;;;;;;;15.40;13.30;;;;;;;10.53;90.99;99582.29;105313;1261;75773;-70
2023/01/20 14:24:35;;;;;;;18.50;14.10;;;;;;;10.46;91.20;99585.21;105387;1261;71520;-71
2023/01/20 14:27:30;;;;;;;22.20;13.40;;;;;;;10.40;91.63;99586.71;105168;1259;73424;-71
2023/01/20 14:30:17;;;;;;;15.70;12.50;;;;;;;10.38;91.79;99584.26;105216;1256;61103;-70
2023/01/20 14:32:44;;;;;;;15.80;12.80;;;;;;;10.34;91.75;99586.98;105151;1264;60801;-71
2023/01/20 14:35:30;;;;;;;18.80;14.60;;;;;;;10.29;91.87;99591.05;105182;1256;74699;-70
2023/01/20 14:37:57;;;;;;;22.40;15.30;;;;;;;10.23;92.22;99590.44;105320;1259;67730;-71
2023/01/20 14:40:25;;;;;;;22.70;13.60;;;;;;;10.17;92.32;99594.96;105199;1256;72920;-71
2023/01/20 14:42:59;;;;;;;23.60;13.20;;;;;;;10.13;92.35;99593.98;105262;1261;61543;-71